createdAt,value
2018-03-21T00:01:58.868Z,62.50
2018-03-21T00:04:25.509Z,51.90
2018-03-21T00:06:53.160Z,66.60
2018-03-21T00:09:20.682Z,43.20
2018-03-21T00:11:47.445Z,57.40
2018-03-21T00:14:14.066Z,46.80
2018-03-21T00:16:40.599Z,61.70
2018-03-21T00:19:07.280Z,54.60
2018-03-21T00:21:35.921Z,41.70
2018-03-21T00:24:02.619Z,41.70
2018-03-21T00:26:29.215Z,51.00
2018-03-21T00:28:55.771Z,55.90
2018-03-21T00:31:22.440Z,70.50
2018-03-21T00:33:59.461Z,56.90
2018-03-21T00:36:39.923Z,73.30
2018-03-21T00:39:14.399Z,60.10
2018-03-21T00:41:43.243Z,60.20
2018-03-21T00:44:10.988Z,65.50
2018-03-21T00:46:45.625Z,58.80
2018-03-21T00:49:12.179Z,58.20
2018-03-21T00:51:47.192Z,56.70
2018-03-21T00:54:13.744Z,76.50
2018-03-21T00:56:40.258Z,52.50
2018-03-21T00:59:06.700Z,63.00
2018-03-21T01:01:33.193Z,57.90
2018-03-21T01:03:59.581Z,56.90
2018-03-21T01:06:29.899Z,90.30
2018-03-21T01:09:05.590Z,66.90
2018-03-21T01:11:32.066Z,61.50
2018-03-21T01:13:58.790Z,66.10
2018-03-21T01:16:25.136Z,91.40
2018-03-21T01:18:51.518Z,86.80
2018-03-21T01:21:17.864Z,75.30
2018-03-21T01:23:45.364Z,58.00
2018-03-21T01:26:11.902Z,76.90
2018-03-21T01:28:42.167Z,88.90
2018-03-21T01:31:10.535Z,89.80
2018-03-21T01:33:36.981Z,74.50
2018-03-21T01:36:17.400Z,66.50
2018-03-21T01:38:44.916Z,80.30
2018-03-21T01:41:11.307Z,57.00
2018-03-21T01:43:49.142Z,71.80
2018-03-21T01:46:25.228Z,75.30
2018-03-21T01:48:52.709Z,76.80
2018-03-21T01:51:19.514Z,80.20
2018-03-21T01:54:02.948Z,82.40
2018-03-21T01:56:29.835Z,57.60
2018-03-21T01:58:56.464Z,87.80
2018-03-21T02:01:23.206Z,86.90
2018-03-21T02:03:59.838Z,89.20
2018-03-21T02:06:28.416Z,88.30
2018-03-21T02:08:59.810Z,69.80
2018-03-21T02:11:33.318Z,84.10
2018-03-21T02:13:59.917Z,64.80
2018-03-21T02:16:26.682Z,80.70
2018-03-21T02:18:53.423Z,76.30
2018-03-21T02:21:27.666Z,73.10
2018-03-21T02:23:54.552Z,77.80
2018-03-21T02:26:22.059Z,81.20
2018-03-21T02:29:02.111Z,78.70
2018-03-21T02:31:28.775Z,83.40
2018-03-21T02:33:55.696Z,70.80
2018-03-21T02:36:22.289Z,93.10
2018-03-21T02:38:50.729Z,94.20
2018-03-21T02:41:17.649Z,88.30
2018-03-21T02:43:45.337Z,74.30
2018-03-21T02:46:12.516Z,88.50
2018-03-21T02:48:39.116Z,82.80
2018-03-21T02:51:05.818Z,93.50
2018-03-21T02:53:32.344Z,94.10
2018-03-21T02:55:58.908Z,93.20
2018-03-21T02:58:26.530Z,90.20
2018-03-21T03:00:53.236Z,83.60
2018-03-21T03:03:21.493Z,78.70
2018-03-21T03:05:48.272Z,84.70
2018-03-21T03:08:14.860Z,92.20
2018-03-21T03:10:41.569Z,90.70
2018-03-21T03:13:08.325Z,90.00
2018-03-21T03:15:38.625Z,90.60
2018-03-21T03:18:05.328Z,90.10
2018-03-21T03:20:31.860Z,78.30
2018-03-21T03:22:58.324Z,89.30
2018-03-21T03:25:25.427Z,88.40
2018-03-21T03:27:52.989Z,89.10
2018-03-21T03:30:19.679Z,85.40
2018-03-21T03:32:46.313Z,84.30
2018-03-21T03:35:12.798Z,85.30
2018-03-21T03:37:39.435Z,74.20
2018-03-21T03:40:06.420Z,87.20
2018-03-21T03:42:33.278Z,89.00
2018-03-21T03:44:59.897Z,78.00
2018-03-21T03:47:27.706Z,74.70
2018-03-21T03:49:54.346Z,73.80
2018-03-21T03:52:21.417Z,71.30
2018-03-21T03:54:48.804Z,84.20
2018-03-21T03:57:15.490Z,71.90
2018-03-21T03:59:43.014Z,80.40
2018-03-21T04:02:09.641Z,77.70
2018-03-21T04:04:36.419Z,82.40
2018-03-21T04:07:03.061Z,66.80
2018-03-21T04:09:29.504Z,85.20
2018-03-21T04:11:55.928Z,71.00
2018-03-21T04:14:22.390Z,67.50
2018-03-21T04:16:49.565Z,67.50
2018-03-21T04:19:17.956Z,73.90
2018-03-21T04:21:44.302Z,67.50
2018-03-21T04:24:10.727Z,81.00
2018-03-21T04:26:37.150Z,85.80
2018-03-21T04:29:04.385Z,72.60
2018-03-21T04:31:33.790Z,75.50
2018-03-21T04:34:00.422Z,73.40
2018-03-21T04:36:26.923Z,71.70
2018-03-21T04:38:53.500Z,71.00
2018-03-21T04:41:19.951Z,69.10
2018-03-21T04:43:47.557Z,68.00
2018-03-21T04:46:13.949Z,90.60
2018-03-21T04:48:42.901Z,80.90
2018-03-21T04:51:09.627Z,80.00
2018-03-21T04:53:36.107Z,68.00
2018-03-21T04:56:02.553Z,76.20
2018-03-21T04:58:29.175Z,75.20
2018-03-21T05:00:57.339Z,68.00
2018-03-21T05:03:24.970Z,91.90
2018-03-21T05:05:52.753Z,89.80
2018-03-21T05:08:19.405Z,75.20
2018-03-21T05:10:45.881Z,69.90
2018-03-21T05:13:12.336Z,79.60
2018-03-21T05:15:38.928Z,72.60
2018-03-21T05:18:11.617Z,82.40
2018-03-21T05:20:38.744Z,71.20
2018-03-21T05:23:08.636Z,79.70
2018-03-21T05:25:36.257Z,81.30
2018-03-21T05:28:02.668Z,71.80
2018-03-21T05:33:13.134Z,78.80
2018-03-21T05:35:40.614Z,82.90
2018-03-21T05:38:07.123Z,78.60
2018-03-21T05:40:33.675Z,76.90
2018-03-21T05:43:00.211Z,84.80
2018-03-21T05:45:26.798Z,74.90
2018-03-21T05:47:53.332Z,79.20
2018-03-21T05:50:19.814Z,80.40
2018-03-21T05:52:46.286Z,82.40
2018-03-21T05:55:12.752Z,75.50
2018-03-21T05:57:45.622Z,81.30
2018-03-21T06:00:14.531Z,86.30
2018-03-21T06:02:44.355Z,88.80
2018-03-21T06:05:12.899Z,88.60
2018-03-21T06:07:42.078Z,81.00
2018-03-21T06:10:09.474Z,79.20
2018-03-21T06:12:38.195Z,85.60
2018-03-21T06:15:05.834Z,87.50
2018-03-21T06:17:52.505Z,84.30
2018-03-21T06:20:27.070Z,90.10
2018-03-21T06:22:53.866Z,89.70
2018-03-21T06:25:20.570Z,91.20
2018-03-21T06:27:47.304Z,92.70
2018-03-21T06:30:14.171Z,89.70
2018-03-21T06:32:40.870Z,83.00
2018-03-21T06:35:07.379Z,91.90
2018-03-21T06:37:33.810Z,91.80
2018-03-21T06:40:01.915Z,83.90
2018-03-21T06:42:28.408Z,83.70
2018-03-21T06:44:54.790Z,83.30
2018-03-21T06:47:21.209Z,87.60
2018-03-21T06:49:47.592Z,86.60
2018-03-21T06:52:13.966Z,90.70
2018-03-21T06:54:40.301Z,91.20
2018-03-21T06:57:06.665Z,87.00
2018-03-21T06:59:33.053Z,84.50
2018-03-21T07:02:00.173Z,87.50
2018-03-21T07:04:26.565Z,87.50
2018-03-21T07:06:54.007Z,89.20
2018-03-21T07:09:21.220Z,87.90
2018-03-21T07:11:47.619Z,87.70
2018-03-21T07:14:26.921Z,90.90
2018-03-21T07:16:53.364Z,90.90
2018-03-21T07:19:19.857Z,90.40
2018-03-21T07:21:46.362Z,90.60
2018-03-21T07:24:12.788Z,91.40
2018-03-21T07:26:39.206Z,91.90
2018-03-21T07:29:06.307Z,92.50
2018-03-21T07:31:32.648Z,92.40
2018-03-21T07:33:59.009Z,92.50
2018-03-21T07:36:27.569Z,92.90
2018-03-21T07:38:53.961Z,94.40
2018-03-21T07:41:20.350Z,94.60
2018-03-21T07:43:46.759Z,93.20
2018-03-21T07:46:13.868Z,95.60
2018-03-21T07:48:40.302Z,95.60
2018-03-21T07:51:07.393Z,92.10
2018-03-21T07:53:33.754Z,92.10
2018-03-21T07:56:00.109Z,92.90
2018-03-21T07:58:26.466Z,94.50
2018-03-21T08:00:52.950Z,94.60
2018-03-21T08:03:19.341Z,96.30
2018-03-21T08:05:46.432Z,96.20
2018-03-21T08:08:12.880Z,96.30
2018-03-21T08:10:39.398Z,95.90
2018-03-21T08:13:05.844Z,95.80
2018-03-21T08:15:36.963Z,96.90
2018-03-21T08:18:03.550Z,97.00
2018-03-21T08:20:30.675Z,97.50
2018-03-21T08:22:57.746Z,97.90
2018-03-21T08:25:24.882Z,98.00
2018-03-21T08:27:51.357Z,98.00
2018-03-21T08:30:22.536Z,98.30
2018-03-21T08:32:48.991Z,98.20
2018-03-21T08:35:15.346Z,98.40
2018-03-21T08:37:42.541Z,99.20
2018-03-21T08:40:08.952Z,99.30
2018-03-21T08:42:36.018Z,99.50
2018-03-21T08:45:09.749Z,99.20
2018-03-21T08:47:36.875Z,99.50
2018-03-21T08:50:03.243Z,99.50
2018-03-21T08:52:29.586Z,99.20
2018-03-21T08:54:56.012Z,99.70
2018-03-21T08:57:22.424Z,99.80
2018-03-21T08:59:53.330Z,99.90
2018-03-21T09:02:19.795Z,99.90
2018-03-21T09:04:46.170Z,99.70
2018-03-21T09:07:12.611Z,99.80
2018-03-21T09:09:39.110Z,99.60
2018-03-21T09:12:05.489Z,99.90
2018-03-21T09:14:31.873Z,99.90
2018-03-21T09:17:01.763Z,99.90
2018-03-21T09:19:28.898Z,99.90
2018-03-21T09:21:55.290Z,99.90
2018-03-21T09:24:21.704Z,99.90
2018-03-21T09:26:48.066Z,99.90
2018-03-21T09:29:14.462Z,99.90
2018-03-21T09:31:45.813Z,99.90
2018-03-21T09:34:12.185Z,99.90
2018-03-21T09:36:38.625Z,99.90
2018-03-21T09:39:05.886Z,99.90
2018-03-21T09:41:32.285Z,99.90
2018-03-21T09:43:58.722Z,99.90
2018-03-21T09:46:25.261Z,99.90
2018-03-21T09:48:55.302Z,99.90
2018-03-21T09:51:22.732Z,99.90
2018-03-21T09:53:49.149Z,99.90
2018-03-21T09:56:15.545Z,99.90
2018-03-21T09:58:41.828Z,99.90
2018-03-21T10:01:09.050Z,99.90
2018-03-21T10:03:35.394Z,99.90
2018-03-21T10:06:03.788Z,99.90
2018-03-21T10:08:30.168Z,99.90
2018-03-21T10:10:56.521Z,99.90
2018-03-21T10:13:22.857Z,99.90
2018-03-21T10:15:49.242Z,99.90
2018-03-21T10:18:15.602Z,99.90
2018-03-21T10:20:42.078Z,99.90
2018-03-21T10:23:15.830Z,99.90
2018-03-21T10:25:42.242Z,99.90
2018-03-21T10:28:08.669Z,99.90
2018-03-21T10:30:35.124Z,99.90
2018-03-21T10:33:01.629Z,99.90
2018-03-21T10:35:28.064Z,99.90
2018-03-21T10:37:57.451Z,99.90
2018-03-21T10:40:24.657Z,99.90
2018-03-21T10:42:51.023Z,99.80
2018-03-21T10:45:17.218Z,99.90
2018-03-21T10:47:44.345Z,99.60
2018-03-21T10:50:10.589Z,99.50
2018-03-21T10:52:39.036Z,99.90
2018-03-21T10:57:34.360Z,99.70
2018-03-21T11:00:01.291Z,99.80
2018-03-21T11:02:43.640Z,99.70
2018-03-21T11:05:12.280Z,99.20
2018-03-21T11:07:38.921Z,99.30
2018-03-21T11:10:05.454Z,99.10
2018-03-21T11:12:32.415Z,98.90
2018-03-21T11:14:58.577Z,98.90
2018-03-21T11:17:25.531Z,99.30
2018-03-21T11:19:52.436Z,99.40
2018-03-21T11:22:18.610Z,99.40
2018-03-21T11:24:46.169Z,99.10
2018-03-21T11:27:13.130Z,99.10
2018-03-21T11:29:39.478Z,99.20
2018-03-21T11:32:06.461Z,99.30
2018-03-21T11:34:32.722Z,99.30
2018-03-21T11:36:59.657Z,98.80
2018-03-21T11:39:25.882Z,98.70
2018-03-21T11:41:52.304Z,98.90
2018-03-21T11:44:21.977Z,98.60
2018-03-21T11:46:49.246Z,98.90
2018-03-21T11:49:15.450Z,98.80
2018-03-21T11:51:41.709Z,98.70
2018-03-21T11:54:08.849Z,98.80
2018-03-21T11:56:35.069Z,98.70
2018-03-21T11:59:03.512Z,98.70
2018-03-21T12:01:32.290Z,98.60
2018-03-21T12:03:58.560Z,99.40
2018-03-21T12:06:25.043Z,98.60
2018-03-21T12:08:51.439Z,98.70
2018-03-21T12:11:17.655Z,98.10
2018-03-21T12:13:44.717Z,98.80
2018-03-21T12:16:18.230Z,98.60
2018-03-21T12:18:45.263Z,98.50
2018-03-21T12:21:11.497Z,98.50
2018-03-21T12:23:38.422Z,97.90
2018-03-21T12:26:04.633Z,98.00
2018-03-21T12:28:30.846Z,98.10
2018-03-21T12:31:01.854Z,98.40
2018-03-21T12:33:29.006Z,98.50
2018-03-21T12:35:56.034Z,98.80
2018-03-21T12:38:22.255Z,98.80
2018-03-21T12:40:48.508Z,98.80
2018-03-21T12:43:14.694Z,98.90
2018-03-21T12:45:40.915Z,98.90
2018-03-21T12:48:12.166Z,97.80
2018-03-21T12:50:39.213Z,98.50
2018-03-21T12:53:05.572Z,98.50
2018-03-21T12:55:31.810Z,98.10
2018-03-21T12:57:58.203Z,98.20
2018-03-21T13:00:24.430Z,97.50
2018-03-21T13:02:51.405Z,97.00
2018-03-21T13:05:35.848Z,97.00
2018-03-21T13:08:02.115Z,97.10
2018-03-21T13:10:28.349Z,97.60
2018-03-21T13:12:54.537Z,94.60
2018-03-21T13:15:24.216Z,91.30
2018-03-21T13:17:51.386Z,84.60
2018-03-21T13:20:18.321Z,87.60
2018-03-21T13:22:45.351Z,90.70
2018-03-21T13:25:11.666Z,90.30
2018-03-21T13:27:37.879Z,86.00
2018-03-21T13:30:10.221Z,91.70
2018-03-21T13:32:36.646Z,86.40
2018-03-21T13:35:03.116Z,92.80
2018-03-21T13:37:30.802Z,83.90
2018-03-21T13:39:57.245Z,83.90
2018-03-21T13:42:23.875Z,86.20
2018-03-21T13:47:27.679Z,86.40
2018-03-21T13:49:55.006Z,75.10
2018-03-21T13:52:22.281Z,75.00
2018-03-21T13:54:48.712Z,71.10
2018-03-21T13:59:47.286Z,69.70
2018-03-21T14:02:13.781Z,72.50
2018-03-21T14:04:40.243Z,73.80
2018-03-21T14:07:07.415Z,65.50
2018-03-21T14:09:33.827Z,65.40
2018-03-21T14:12:01.042Z,59.90
2018-03-21T14:14:27.641Z,59.80
2018-03-21T14:16:56.371Z,70.30
2018-03-21T14:19:24.042Z,72.00
2018-03-21T14:21:51.144Z,71.30
2018-03-21T14:24:17.575Z,68.20
2018-03-21T14:26:44.720Z,58.40
2018-03-21T14:29:11.097Z,58.90
2018-03-21T14:31:37.577Z,58.80
2018-03-21T14:34:09.136Z,65.90
2018-03-21T14:36:35.740Z,60.20
2018-03-21T14:39:04.905Z,64.30
2018-03-21T14:41:34.751Z,63.00
2018-03-21T14:44:01.364Z,62.60
2018-03-21T14:46:35.683Z,62.70
2018-03-21T14:49:02.161Z,60.70
2018-03-21T14:51:30.914Z,65.90
2018-03-21T14:53:59.747Z,61.20
2018-03-21T14:56:26.312Z,61.00
2018-03-21T14:58:53.343Z,60.50
2018-03-21T15:01:19.974Z,59.30
2018-03-21T15:03:46.550Z,55.30
2018-03-21T15:06:13.825Z,48.70
2018-03-21T15:08:43.223Z,49.40
2018-03-21T15:11:09.718Z,49.80
2018-03-21T15:13:36.291Z,61.70
2018-03-21T15:16:03.544Z,52.50
2018-03-21T15:18:30.177Z,52.40
2018-03-21T15:20:56.610Z,52.80
2018-03-21T15:23:23.010Z,55.90
2018-03-21T15:25:49.509Z,53.80
2018-03-21T15:28:15.996Z,45.70
2018-03-21T15:30:46.597Z,45.30
2018-03-21T15:33:13.047Z,52.00
2018-03-21T15:35:40.212Z,44.20
2018-03-21T15:38:06.600Z,43.90
2018-03-21T15:40:33.027Z,52.00
2018-03-21T15:43:00.162Z,51.20
2018-03-21T15:48:00.223Z,55.70
2018-03-21T15:50:26.833Z,55.30
2018-03-21T15:52:53.262Z,50.60
2018-03-21T15:55:19.646Z,53.20
2018-03-21T15:57:46.060Z,49.50
2018-03-21T16:00:18.236Z,45.90
2018-03-21T16:02:44.692Z,54.60
2018-03-21T16:05:11.117Z,50.00
2018-03-21T16:07:37.492Z,48.00
2018-03-21T16:10:03.915Z,48.20
2018-03-21T16:12:30.380Z,53.50
2018-03-21T16:15:02.867Z,51.40
2018-03-21T16:17:29.311Z,54.80
2018-03-21T16:19:55.796Z,57.90
2018-03-21T16:22:22.217Z,61.20
2018-03-21T16:24:48.655Z,49.70
2018-03-21T16:27:15.164Z,56.60
2018-03-21T16:29:41.637Z,57.60
2018-03-21T16:32:13.733Z,52.60
2018-03-21T16:34:40.254Z,50.20
2018-03-21T16:37:06.697Z,48.20
2018-03-21T16:39:33.893Z,51.20
2018-03-21T16:42:00.329Z,51.10
2018-03-21T16:44:27.518Z,44.10
2018-03-21T16:46:54.199Z,44.00
2018-03-21T16:51:58.240Z,47.50
2018-03-21T16:54:25.832Z,50.20
2018-03-21T16:56:52.388Z,45.70
2018-03-21T16:59:18.866Z,46.50
2018-03-21T17:01:50.484Z,44.40
2018-03-21T17:04:17.007Z,52.20
2018-03-21T17:06:43.439Z,53.10
2018-03-21T17:09:09.719Z,49.70
2018-03-21T17:11:37.008Z,48.60
2018-03-21T17:14:03.356Z,49.60
2018-03-21T17:16:35.191Z,45.50
2018-03-21T17:19:01.419Z,45.70
2018-03-21T17:21:27.612Z,44.10
2018-03-21T17:23:53.911Z,49.60
2018-03-21T17:26:20.239Z,44.90
2018-03-21T17:28:46.522Z,45.40
2018-03-21T17:31:12.935Z,46.40
2018-03-21T17:33:42.877Z,44.50
2018-03-21T17:36:10.004Z,52.30
2018-03-21T17:38:36.435Z,52.60
2018-03-21T17:41:02.850Z,46.90
2018-03-21T17:43:29.954Z,44.80
2018-03-21T17:45:56.302Z,45.00
2018-03-21T17:48:22.731Z,46.90
2018-03-21T17:50:55.833Z,44.80
2018-03-21T17:53:23.308Z,56.40
2018-03-21T17:55:50.688Z,51.50
2018-03-21T17:58:17.042Z,55.10
2018-03-21T18:00:43.332Z,49.90
2018-03-21T18:03:09.664Z,47.80
2018-03-21T18:05:38.595Z,58.30
2018-03-21T18:08:04.886Z,58.00
2018-03-21T18:10:31.883Z,55.10
2018-03-21T18:12:58.137Z,54.90
2018-03-21T18:15:24.414Z,52.20
2018-03-21T18:17:50.873Z,52.90
2018-03-21T18:20:17.919Z,57.40
2018-03-21T18:22:50.248Z,59.80
2018-03-21T18:25:16.950Z,59.90
2018-03-21T18:27:43.294Z,58.80
2018-03-21T18:30:09.643Z,47.00
2018-03-21T18:32:36.693Z,46.10
2018-03-21T18:35:02.998Z,46.10
2018-03-21T18:37:29.280Z,46.70
2018-03-21T18:39:55.486Z,55.30
2018-03-21T18:42:21.774Z,49.80
2018-03-21T18:44:48.064Z,44.40
2018-03-21T18:47:14.388Z,45.30
2018-03-21T18:49:40.885Z,47.40
2018-03-21T18:52:08.148Z,50.30
2018-03-21T18:54:34.490Z,51.60
2018-03-21T18:57:00.950Z,51.20
2018-03-21T18:59:27.230Z,55.10
2018-03-21T19:01:53.554Z,49.40
2018-03-21T19:04:19.962Z,53.50
2018-03-21T19:06:53.466Z,50.60
2018-03-21T19:09:20.490Z,53.30
2018-03-21T19:11:46.708Z,53.20
2018-03-21T19:14:13.263Z,49.20
2018-03-21T19:16:39.526Z,43.70
2018-03-21T19:19:05.728Z,45.20
2018-03-21T19:21:32.688Z,51.80
2018-03-21T19:23:59.002Z,51.60
2018-03-21T19:26:25.994Z,52.80
2018-03-21T19:28:52.926Z,47.20
2018-03-21T19:31:19.182Z,47.00
2018-03-21T19:33:46.721Z,49.70
2018-03-21T19:36:17.824Z,50.40
2018-03-21T19:38:45.610Z,52.80
2018-03-21T19:41:13.642Z,44.00
2018-03-21T19:43:40.437Z,51.70
2018-03-21T19:46:07.629Z,48.20
2018-03-21T19:48:34.066Z,48.10
2018-03-21T19:51:00.480Z,48.90
2018-03-21T19:53:26.853Z,51.90
2018-03-21T19:55:54.349Z,54.70
2018-03-21T19:58:24.256Z,51.90
2018-03-21T20:00:51.229Z,46.70
2018-03-21T20:03:17.564Z,53.70
2018-03-21T20:05:44.813Z,51.70
2018-03-21T20:08:11.271Z,51.90
2018-03-21T20:10:38.395Z,57.50
2018-03-21T20:13:04.629Z,57.90
2018-03-21T20:15:34.324Z,48.90
2018-03-21T20:18:01.091Z,51.70
2018-03-21T20:20:27.647Z,54.60
2018-03-21T20:22:54.843Z,52.80
2018-03-21T20:25:21.291Z,54.80
2018-03-21T20:27:47.843Z,61.50
2018-03-21T20:30:15.106Z,58.50
2018-03-21T20:32:44.761Z,58.40
2018-03-21T20:35:11.056Z,57.10
2018-03-21T20:37:37.353Z,64.40
2018-03-21T20:40:03.562Z,52.90
2018-03-21T20:42:29.812Z,60.00
2018-03-21T20:44:56.829Z,60.30
2018-03-21T20:47:23.165Z,60.10
2018-03-21T20:49:49.377Z,52.70
2018-03-21T20:52:15.669Z,52.60
2018-03-21T20:54:42.776Z,54.70
2018-03-21T20:57:09.223Z,61.30
2018-03-21T20:59:35.500Z,62.20
2018-03-21T21:02:01.932Z,58.20
2018-03-21T21:04:28.142Z,65.40
2018-03-21T21:06:54.411Z,59.00
2018-03-21T21:09:20.785Z,62.80
2018-03-21T21:11:47.130Z,66.90
2018-03-21T21:14:14.415Z,62.20
2018-03-21T21:16:40.760Z,64.20
2018-03-21T21:19:07.720Z,64.00
2018-03-21T21:21:33.986Z,63.90
2018-03-21T21:24:00.211Z,55.20
2018-03-21T21:26:26.423Z,60.00
2018-03-21T21:28:52.876Z,55.10
2018-03-21T21:31:19.175Z,54.90
2018-03-21T21:33:45.842Z,60.60
2018-03-21T21:36:12.231Z,54.50
2018-03-21T21:38:39.357Z,63.40
2018-03-21T21:41:05.665Z,55.70
2018-03-21T21:43:31.857Z,61.70
2018-03-21T21:45:58.015Z,56.90
2018-03-21T21:48:24.226Z,57.00
2018-03-21T21:50:51.133Z,62.30
2018-03-21T21:53:17.302Z,56.50
2018-03-21T21:55:44.474Z,55.90
2018-03-21T21:58:10.722Z,58.40
2018-03-21T22:00:37.758Z,56.80
2018-03-21T22:03:03.926Z,56.80
2018-03-21T22:05:30.218Z,53.40
2018-03-21T22:07:56.425Z,53.00
2018-03-21T22:10:22.653Z,57.40
2018-03-21T22:12:49.614Z,53.00
2018-03-21T22:15:15.945Z,52.20
2018-03-21T22:17:42.133Z,54.40
2018-03-21T22:20:08.346Z,58.40
2018-03-21T22:22:34.575Z,63.30
2018-03-21T22:25:01.289Z,54.50
2018-03-21T22:27:27.508Z,64.80
2018-03-21T22:29:53.726Z,62.70
2018-03-21T22:32:20.670Z,58.40
2018-03-21T22:34:46.886Z,57.80
2018-03-21T22:37:13.227Z,57.80
2018-03-21T22:39:39.444Z,63.50
2018-03-21T22:42:05.729Z,61.10
2018-03-21T22:44:32.003Z,56.00
2018-03-21T22:46:58.246Z,57.30
2018-03-21T22:49:24.423Z,59.60
2018-03-21T22:51:50.667Z,63.70
2018-03-21T22:54:16.893Z,62.90
2018-03-21T22:56:43.105Z,68.70
2018-03-21T22:59:09.771Z,59.90
2018-03-21T23:01:36.010Z,63.00
2018-03-21T23:04:02.277Z,63.70
2018-03-21T23:06:28.505Z,64.80
2018-03-21T23:08:54.758Z,63.10
2018-03-21T23:11:21.009Z,63.80
2018-03-21T23:13:47.191Z,63.10
2018-03-21T23:16:14.210Z,62.70
2018-03-21T23:18:40.468Z,63.00
2018-03-21T23:21:06.767Z,71.70
2018-03-21T23:23:32.995Z,66.80
2018-03-21T23:25:59.302Z,61.70
2018-03-21T23:28:25.922Z,67.90
2018-03-21T23:30:52.827Z,67.20
2018-03-21T23:33:19.152Z,68.00
2018-03-21T23:35:46.932Z,67.20
2018-03-21T23:38:13.364Z,64.90
2018-03-21T23:40:40.466Z,65.10
2018-03-21T23:43:07.717Z,65.10
2018-03-21T23:45:34.019Z,69.70
2018-03-21T23:48:00.316Z,68.90
2018-03-21T23:50:26.662Z,70.50
2018-03-21T23:52:54.093Z,69.70
2018-03-21T23:55:21.146Z,68.40
2018-03-21T23:57:48.159Z,63.40
